createdAt,value
2018-12-15T00:01:48.476Z,51.92
2018-12-15T00:04:15.882Z,52.42
2018-12-15T00:06:43.285Z,52.22
2018-12-15T00:09:10.679Z,52.17
2018-12-15T00:11:38.169Z,51.60
2018-12-15T00:14:05.617Z,50.79
2018-12-15T00:16:33.088Z,51.20
2018-12-15T00:19:00.581Z,52.41
2018-12-15T00:21:28.002Z,52.14
2018-12-15T00:23:55.376Z,51.58
2018-12-15T00:26:22.781Z,51.23
2018-12-15T00:28:50.221Z,51.00
2018-12-15T00:31:17.620Z,51.92
2018-12-15T00:33:45.022Z,52.27
2018-12-15T00:36:12.457Z,52.44
2018-12-15T00:38:39.974Z,52.70
2018-12-15T00:41:07.409Z,51.93
2018-12-15T00:43:34.818Z,52.19
2018-12-15T00:46:02.276Z,51.15
2018-12-15T00:48:29.746Z,51.59
2018-12-15T00:50:57.252Z,50.62
2018-12-15T00:53:24.721Z,50.78
2018-12-15T00:55:52.109Z,51.68
2018-12-15T00:58:19.576Z,51.42
2018-12-15T01:00:47.023Z,51.71
2018-12-15T01:03:14.433Z,53.04
2018-12-15T01:05:41.933Z,52.48
2018-12-15T01:08:09.382Z,51.47
2018-12-15T01:10:36.754Z,50.83
2018-12-15T01:13:04.148Z,51.42
2018-12-15T01:15:37.210Z,51.65
2018-12-15T01:18:04.602Z,50.89
2018-12-15T01:20:32.006Z,50.47
2018-12-15T01:22:59.394Z,51.32
2018-12-15T01:25:26.822Z,52.51
2018-12-15T01:27:54.217Z,52.17
2018-12-15T01:30:21.632Z,51.95
2018-12-15T01:32:49.022Z,51.73
2018-12-15T01:35:16.508Z,51.26
2018-12-15T01:37:43.900Z,51.16
2018-12-15T01:40:11.338Z,51.46
2018-12-15T01:42:38.769Z,52.01
2018-12-15T01:45:06.474Z,51.16
2018-12-15T01:47:33.851Z,50.72
2018-12-15T01:50:01.243Z,50.06
2018-12-15T01:52:28.633Z,49.57
2018-12-15T01:54:56.221Z,49.28
2018-12-15T01:57:23.672Z,49.83
2018-12-15T01:59:51.080Z,49.71
2018-12-15T02:02:18.460Z,49.47
2018-12-15T02:04:45.866Z,50.04
2018-12-15T02:07:13.269Z,50.21
2018-12-15T02:09:40.668Z,49.78
2018-12-15T02:12:08.140Z,50.77
2018-12-15T02:14:35.616Z,50.91
2018-12-15T02:17:03.018Z,51.52
2018-12-15T02:19:30.665Z,50.58
2018-12-15T02:21:58.075Z,50.76
2018-12-15T02:24:25.534Z,50.34
2018-12-15T02:26:52.958Z,50.98
2018-12-15T02:29:20.450Z,50.76
2018-12-15T02:31:47.873Z,51.17
2018-12-15T02:34:15.288Z,51.46
2018-12-15T02:36:42.749Z,51.64
2018-12-15T02:39:10.191Z,51.17
2018-12-15T02:41:37.601Z,50.87
2018-12-15T02:44:04.989Z,51.61
2018-12-15T02:46:32.453Z,50.10
2018-12-15T02:48:59.850Z,50.07
2018-12-15T02:51:27.265Z,50.03
2018-12-15T02:53:54.642Z,50.24
2018-12-15T02:56:22.114Z,49.94
2018-12-15T02:58:49.513Z,50.98
2018-12-15T03:01:16.936Z,50.83
2018-12-15T03:03:44.340Z,50.88
2018-12-15T03:06:11.763Z,50.98
2018-12-15T03:08:39.179Z,51.48
2018-12-15T03:11:06.611Z,50.52
2018-12-15T03:13:34.092Z,50.30
2018-12-15T03:16:01.532Z,50.83
2018-12-15T03:18:28.919Z,51.15
2018-12-15T03:21:00.186Z,50.59
2018-12-15T03:23:27.715Z,50.46
2018-12-15T03:25:55.170Z,50.75
2018-12-15T03:28:22.550Z,50.88
2018-12-15T03:30:50.019Z,50.86
2018-12-15T03:33:17.456Z,50.27
2018-12-15T03:35:44.839Z,50.54
2018-12-15T03:38:12.229Z,50.96
2018-12-15T03:40:39.640Z,49.32
2018-12-15T03:43:07.120Z,50.23
2018-12-15T03:45:34.567Z,49.58
2018-12-15T03:48:02.061Z,50.45
2018-12-15T03:50:29.525Z,50.70
2018-12-15T03:52:56.933Z,50.53
2018-12-15T03:55:24.336Z,50.98
2018-12-15T03:57:51.758Z,51.34
2018-12-15T04:00:19.134Z,51.76
2018-12-15T04:02:46.549Z,51.38
2018-12-15T04:05:13.966Z,49.53
2018-12-15T04:07:41.476Z,49.70
2018-12-15T04:10:08.925Z,50.75
2018-12-15T04:12:36.321Z,50.78
2018-12-15T04:15:05.166Z,50.33
2018-12-15T04:17:32.662Z,50.59
2018-12-15T04:20:00.066Z,51.24
2018-12-15T04:22:27.559Z,51.37
2018-12-15T04:24:55.037Z,51.48
2018-12-15T04:27:22.452Z,51.44
2018-12-15T04:29:49.863Z,51.07
2018-12-15T04:32:17.271Z,51.03
2018-12-15T04:34:44.697Z,51.63
2018-12-15T04:37:12.121Z,51.86
2018-12-15T04:39:39.574Z,51.13
2018-12-15T04:42:07.042Z,51.37
2018-12-15T04:44:34.530Z,51.44
2018-12-15T04:47:02.387Z,51.49
2018-12-15T04:49:29.913Z,51.92
2018-12-15T04:51:57.385Z,52.41
2018-12-15T04:54:24.788Z,51.62
2018-12-15T04:56:52.165Z,51.34
2018-12-15T04:59:19.606Z,51.44
2018-12-15T05:01:47.056Z,50.48
2018-12-15T05:04:14.546Z,51.09
2018-12-15T05:06:41.920Z,51.50
2018-12-15T05:09:09.329Z,50.38
2018-12-15T05:11:36.780Z,50.68
2018-12-15T05:14:04.225Z,51.43
2018-12-15T05:16:31.651Z,51.10
2018-12-15T05:18:59.056Z,51.40
2018-12-15T05:21:26.540Z,51.13
2018-12-15T05:23:54.029Z,51.27
2018-12-15T05:26:21.520Z,51.52
2018-12-15T05:28:48.986Z,51.38
2018-12-15T05:31:16.449Z,51.54
2018-12-15T05:33:43.930Z,51.00
2018-12-15T05:36:11.534Z,51.54
2018-12-15T05:38:38.921Z,51.80
2018-12-15T05:41:06.494Z,51.98
2018-12-15T05:43:33.930Z,51.20
2018-12-15T05:46:01.341Z,51.11
2018-12-15T05:48:28.742Z,50.57
2018-12-15T05:50:56.195Z,50.94
2018-12-15T05:53:23.575Z,51.82
2018-12-15T05:55:50.988Z,51.65
2018-12-15T05:58:18.544Z,52.00
2018-12-15T06:00:45.964Z,51.78
2018-12-15T06:03:13.386Z,52.17
2018-12-15T06:05:40.776Z,52.41
2018-12-15T06:08:08.205Z,51.87
2018-12-15T06:10:35.610Z,51.72
2018-12-15T06:13:03.027Z,52.12
2018-12-15T06:15:30.486Z,51.49
2018-12-15T06:17:57.878Z,51.20
2018-12-15T06:20:25.285Z,51.51
2018-12-15T06:22:52.702Z,51.96
2018-12-15T06:25:20.125Z,51.70
2018-12-15T06:27:47.535Z,52.53
2018-12-15T06:30:14.962Z,52.42
2018-12-15T06:32:42.416Z,52.04
2018-12-15T06:35:09.790Z,52.66
2018-12-15T06:37:37.261Z,52.72
2018-12-15T06:40:06.052Z,52.94
2018-12-15T06:42:33.450Z,52.21
2018-12-15T06:45:00.852Z,51.67
2018-12-15T06:47:28.255Z,52.04
2018-12-15T06:49:55.666Z,53.11
2018-12-15T06:52:23.061Z,53.29
2018-12-15T06:54:50.455Z,52.99
2018-12-15T06:57:17.833Z,52.73
2018-12-15T06:59:45.310Z,52.11
2018-12-15T07:02:12.792Z,52.20
2018-12-15T07:04:40.193Z,51.73
2018-12-15T07:07:07.592Z,51.70
2018-12-15T07:09:35.002Z,51.94
2018-12-15T07:12:02.432Z,51.54
2018-12-15T07:14:29.836Z,51.33
2018-12-15T07:16:57.384Z,52.10
2018-12-15T07:19:24.881Z,51.86
2018-12-15T07:21:52.315Z,51.29
2018-12-15T07:24:19.737Z,51.60
2018-12-15T07:26:47.155Z,52.37
2018-12-15T07:29:14.563Z,52.14
2018-12-15T07:31:41.961Z,52.85
2018-12-15T07:34:09.408Z,52.17
2018-12-15T07:36:36.806Z,52.23
2018-12-15T07:39:06.176Z,52.87
2018-12-15T07:41:33.596Z,52.57
2018-12-15T07:44:01.005Z,52.88
2018-12-15T07:46:28.501Z,52.90
2018-12-15T07:48:55.925Z,53.45
2018-12-15T07:51:23.391Z,53.04
2018-12-15T07:53:51.237Z,53.09
2018-12-15T07:56:20.585Z,53.37
2018-12-15T07:58:47.969Z,53.02
2018-12-15T08:01:15.369Z,53.04
2018-12-15T08:03:42.836Z,52.26
2018-12-15T08:06:10.222Z,52.95
2018-12-15T08:08:37.755Z,53.22
2018-12-15T08:11:10.684Z,52.48
2018-12-15T08:13:40.105Z,52.89
2018-12-15T08:16:07.522Z,53.82
2018-12-15T08:18:35.045Z,53.33
2018-12-15T08:21:02.516Z,53.06
2018-12-15T08:23:29.948Z,51.94
2018-12-15T08:25:57.360Z,52.88
2018-12-15T08:28:24.809Z,53.62
2018-12-15T08:30:52.405Z,52.97
2018-12-15T08:33:19.820Z,53.41
2018-12-15T08:35:47.245Z,53.15
2018-12-15T08:38:14.670Z,53.40
2018-12-15T08:40:43.329Z,53.01
2018-12-15T08:43:10.867Z,54.24
2018-12-15T08:45:38.280Z,53.74
2018-12-15T08:48:05.662Z,53.54
2018-12-15T08:50:33.127Z,53.98
2018-12-15T08:53:00.554Z,53.22
2018-12-15T08:55:27.960Z,54.18
2018-12-15T08:57:55.361Z,53.16
2018-12-15T09:00:22.768Z,53.83
2018-12-15T09:02:50.185Z,53.79
2018-12-15T09:05:17.825Z,53.78
2018-12-15T09:07:45.244Z,52.95
2018-12-15T09:10:12.704Z,52.87
2018-12-15T09:12:40.152Z,53.21
2018-12-15T09:15:07.700Z,52.75
2018-12-15T09:17:35.069Z,52.38
2018-12-15T09:20:02.728Z,52.67
2018-12-15T09:22:30.105Z,53.04
2018-12-15T09:24:57.504Z,53.52
2018-12-15T09:27:24.897Z,53.33
2018-12-15T09:29:52.287Z,52.80
2018-12-15T09:32:19.706Z,53.21
2018-12-15T09:34:47.191Z,52.75
2018-12-15T09:37:14.824Z,52.79
2018-12-15T09:39:42.213Z,51.66
2018-12-15T09:42:09.730Z,53.06
2018-12-15T09:44:37.107Z,53.06
2018-12-15T09:47:04.585Z,52.87
2018-12-15T09:49:32.101Z,53.09
2018-12-15T09:51:59.507Z,52.60
2018-12-15T09:54:26.892Z,51.78
2018-12-15T09:56:54.322Z,52.65
2018-12-15T09:59:21.820Z,52.63
2018-12-15T10:01:49.296Z,52.53
2018-12-15T10:04:16.728Z,52.56
2018-12-15T10:06:44.308Z,52.09
2018-12-15T10:09:11.706Z,52.97
2018-12-15T10:11:39.122Z,51.97
2018-12-15T10:14:06.532Z,52.49
2018-12-15T10:16:33.999Z,52.84
2018-12-15T10:19:01.458Z,52.30
2018-12-15T10:21:28.838Z,52.46
2018-12-15T10:23:56.269Z,52.16
2018-12-15T10:26:23.795Z,53.05
2018-12-15T10:28:51.319Z,52.76
2018-12-15T10:31:24.434Z,52.67
2018-12-15T10:33:51.839Z,53.52
2018-12-15T10:36:19.402Z,53.08
2018-12-15T10:38:47.207Z,54.01
2018-12-15T10:41:14.625Z,52.81
2018-12-15T10:43:42.089Z,53.18
2018-12-15T10:46:09.529Z,52.67
2018-12-15T10:48:37.258Z,52.63
2018-12-15T10:51:04.661Z,53.32
2018-12-15T10:53:32.083Z,53.65
2018-12-15T10:55:59.704Z,52.33
2018-12-15T10:58:27.180Z,52.49
2018-12-15T11:00:56.399Z,53.02
2018-12-15T11:03:23.868Z,52.97
2018-12-15T11:05:51.386Z,53.06
2018-12-15T11:08:18.795Z,53.50
2018-12-15T11:10:46.243Z,53.23
2018-12-15T11:13:13.674Z,52.85
2018-12-15T11:15:41.128Z,52.46
2018-12-15T11:18:09.392Z,53.38
2018-12-15T11:20:36.876Z,53.86
2018-12-15T11:23:04.262Z,51.56
2018-12-15T11:25:31.649Z,52.19
2018-12-15T11:27:59.064Z,52.43
2018-12-15T11:30:26.474Z,52.43
2018-12-15T11:32:53.864Z,52.41
2018-12-15T11:35:21.313Z,52.48
2018-12-15T11:37:49.349Z,52.72
2018-12-15T11:40:16.718Z,53.86
2018-12-15T11:42:44.273Z,52.79
2018-12-15T11:45:11.797Z,51.97
2018-12-15T11:47:39.182Z,52.82
2018-12-15T11:50:07.142Z,51.98
2018-12-15T11:52:34.644Z,52.63
2018-12-15T11:55:02.098Z,52.48
2018-12-15T11:57:29.499Z,52.24
2018-12-15T11:59:56.945Z,52.59
2018-12-15T12:02:24.349Z,52.09
2018-12-15T12:04:51.791Z,52.12
2018-12-15T12:07:19.276Z,51.54
2018-12-15T12:09:46.678Z,52.02
2018-12-15T12:12:14.088Z,52.43
2018-12-15T12:14:41.561Z,52.37
2018-12-15T12:17:09.118Z,52.60
2018-12-15T12:19:36.525Z,52.12
2018-12-15T12:22:04.896Z,50.77
2018-12-15T12:24:32.315Z,51.33
2018-12-15T12:26:59.774Z,50.74
2018-12-15T12:29:27.450Z,51.42
2018-12-15T12:31:55.075Z,51.22
2018-12-15T12:34:22.730Z,51.09
2018-12-15T12:36:50.333Z,52.00
2018-12-15T12:39:17.751Z,51.93
2018-12-15T12:41:45.177Z,52.42
2018-12-15T12:44:12.578Z,51.37
2018-12-15T12:46:40.161Z,51.51
2018-12-15T12:49:07.591Z,50.86
2018-12-15T12:51:34.960Z,50.77
2018-12-15T12:54:02.532Z,51.98
2018-12-15T12:56:29.981Z,51.20
2018-12-15T12:58:57.407Z,51.32
2018-12-15T13:01:24.822Z,51.80
2018-12-15T13:03:52.220Z,51.46
2018-12-15T13:06:19.642Z,51.39
2018-12-15T13:08:47.901Z,51.22
2018-12-15T13:11:15.342Z,50.68
2018-12-15T13:13:42.812Z,50.42
2018-12-15T13:16:10.674Z,51.03
2018-12-15T13:18:38.171Z,52.24
2018-12-15T13:21:05.565Z,50.74
2018-12-15T13:23:33.168Z,51.58
2018-12-15T13:26:00.918Z,50.56
2018-12-15T13:28:28.342Z,51.01
2018-12-15T13:30:55.720Z,51.02
2018-12-15T13:33:31.738Z,51.59
2018-12-15T13:35:59.151Z,51.29
2018-12-15T13:38:26.586Z,51.26
2018-12-15T13:40:54.110Z,51.91
2018-12-15T13:43:21.598Z,51.63
2018-12-15T13:45:49.194Z,52.27
2018-12-15T13:48:16.626Z,51.05
2018-12-15T13:50:44.039Z,51.29
2018-12-15T13:53:11.492Z,50.90
2018-12-15T13:55:39.013Z,51.58
2018-12-15T13:58:06.875Z,51.22
2018-12-15T14:00:34.349Z,51.60
2018-12-15T14:03:01.723Z,51.54
2018-12-15T14:05:29.198Z,52.00
2018-12-15T14:07:56.625Z,52.07
2018-12-15T14:10:24.072Z,51.19
2018-12-15T14:12:51.678Z,50.75
2018-12-15T14:15:19.189Z,51.01
2018-12-15T14:17:46.679Z,52.06
2018-12-15T14:20:16.986Z,51.54
2018-12-15T14:22:43.654Z,51.50
2018-12-15T14:25:11.023Z,51.19
2018-12-15T14:27:38.431Z,52.14
2018-12-15T14:30:07.491Z,52.00
2018-12-15T14:32:35.031Z,51.29
2018-12-15T14:35:02.475Z,52.01
2018-12-15T14:37:29.844Z,51.45
2018-12-15T14:39:57.386Z,52.54
2018-12-15T14:42:24.874Z,51.95
2018-12-15T14:44:53.864Z,52.61
2018-12-15T14:47:21.549Z,52.11
2018-12-15T14:49:48.941Z,51.30
2018-12-15T14:52:16.333Z,52.36
2018-12-15T14:54:43.785Z,52.63
2018-12-15T14:57:11.170Z,52.38
2018-12-15T14:59:38.585Z,52.54
2018-12-15T15:02:06.035Z,53.06
2018-12-15T15:04:33.517Z,52.51
2018-12-15T15:07:00.953Z,52.37
2018-12-15T15:09:28.372Z,52.12
2018-12-15T15:11:55.750Z,52.82
2018-12-15T15:14:23.163Z,51.79
2018-12-15T15:16:50.589Z,53.21
2018-12-15T15:19:17.997Z,52.83
2018-12-15T15:21:45.399Z,52.46
2018-12-15T15:24:12.809Z,52.61
2018-12-15T15:26:40.221Z,52.58
2018-12-15T15:29:07.682Z,53.92
2018-12-15T15:31:35.072Z,53.21
2018-12-15T15:34:02.479Z,53.43
2018-12-15T15:36:29.878Z,53.29
2018-12-15T15:38:58.221Z,53.22
2018-12-15T15:41:25.784Z,53.81
2018-12-15T15:43:53.269Z,53.43
2018-12-15T15:46:21.650Z,53.21
2018-12-15T15:48:49.067Z,53.52
2018-12-15T15:51:16.463Z,54.07
2018-12-15T15:53:43.881Z,54.18
2018-12-15T15:56:11.291Z,53.97
2018-12-15T15:58:38.690Z,54.61
2018-12-15T16:01:06.138Z,54.27
2018-12-15T16:03:33.635Z,54.60
2018-12-15T16:06:01.058Z,54.43
2018-12-15T16:08:28.489Z,55.22
2018-12-15T16:10:55.908Z,54.72
2018-12-15T16:13:23.323Z,54.76
2018-12-15T16:15:50.833Z,55.17
2018-12-15T16:18:18.278Z,55.43
2018-12-15T16:20:45.778Z,54.89
2018-12-15T16:23:13.246Z,54.98
2018-12-15T16:25:40.725Z,54.44
2018-12-15T16:28:08.128Z,54.69
2018-12-15T16:30:35.561Z,55.08
2018-12-15T16:33:02.986Z,54.45
2018-12-15T16:35:30.569Z,55.50
2018-12-15T16:37:58.029Z,54.86
2018-12-15T16:40:25.503Z,54.73
2018-12-15T16:42:52.967Z,55.41
2018-12-15T16:45:20.369Z,54.42
2018-12-15T16:47:47.783Z,54.71
2018-12-15T16:50:15.168Z,55.22
2018-12-15T16:52:43.344Z,54.55
2018-12-15T16:55:11.276Z,54.92
2018-12-15T16:57:38.676Z,55.13
2018-12-15T17:00:08.661Z,54.60
2018-12-15T17:02:36.057Z,55.19
2018-12-15T17:05:04.573Z,54.66
2018-12-15T17:07:32.009Z,55.03
2018-12-15T17:09:59.445Z,54.83
2018-12-15T17:12:26.868Z,55.67
2018-12-15T17:14:54.254Z,56.07
2018-12-15T17:17:21.753Z,54.93
2018-12-15T17:19:49.182Z,55.35
2018-12-15T17:22:16.565Z,55.41
2018-12-15T17:24:44.360Z,55.94
2018-12-15T17:27:15.681Z,55.31
2018-12-15T17:29:43.085Z,55.04
2018-12-15T17:32:10.505Z,55.90
2018-12-15T17:34:37.906Z,55.45
2018-12-15T17:37:05.333Z,55.20
2018-12-15T17:39:32.865Z,54.73
2018-12-15T17:42:00.284Z,55.22
2018-12-15T17:44:27.685Z,56.08
2018-12-15T17:46:55.089Z,55.33
2018-12-15T17:49:22.524Z,55.87
2018-12-15T17:51:49.923Z,55.56
2018-12-15T17:54:17.327Z,55.76
2018-12-15T17:56:44.726Z,55.46
2018-12-15T17:59:12.276Z,55.62
2018-12-15T18:01:39.694Z,55.95
2018-12-15T18:04:07.087Z,55.84
2018-12-15T18:06:34.514Z,56.05
2018-12-15T18:09:01.994Z,55.87
2018-12-15T18:11:29.393Z,55.99
2018-12-15T18:13:56.808Z,56.33
2018-12-15T18:16:24.231Z,56.05
2018-12-15T18:18:51.755Z,56.00
2018-12-15T18:21:19.305Z,56.71
2018-12-15T18:23:46.982Z,56.71
2018-12-15T18:26:14.413Z,56.30
2018-12-15T18:28:41.827Z,56.96
2018-12-15T18:31:09.224Z,56.88
2018-12-15T18:33:37.086Z,57.17
2018-12-15T18:36:04.695Z,57.54
2018-12-15T18:38:32.137Z,56.93
2018-12-15T18:40:59.570Z,57.68
2018-12-15T18:43:26.979Z,57.22
2018-12-15T18:45:55.168Z,57.44
2018-12-15T18:48:22.542Z,57.44
2018-12-15T18:50:49.980Z,57.10
2018-12-15T18:53:17.435Z,57.44
2018-12-15T18:55:44.939Z,57.63
2018-12-15T18:58:12.361Z,57.11
2018-12-15T19:00:39.800Z,58.06
2018-12-15T19:03:07.197Z,57.46
2018-12-15T19:05:34.621Z,57.35
2018-12-15T19:08:02.069Z,58.45
2018-12-15T19:10:29.495Z,57.70
2018-12-15T19:12:56.890Z,58.14
2018-12-15T19:15:24.319Z,58.03
2018-12-15T19:17:51.717Z,58.35
2018-12-15T19:20:19.219Z,57.76
2018-12-15T19:22:46.698Z,58.01
2018-12-15T19:25:14.233Z,58.09
2018-12-15T19:27:41.914Z,58.52
2018-12-15T19:30:09.519Z,58.54
2018-12-15T19:32:36.959Z,58.48
2018-12-15T19:35:04.896Z,58.18
2018-12-15T19:37:32.322Z,58.30
2018-12-15T19:39:59.716Z,58.62
2018-12-15T19:42:27.126Z,58.39
2018-12-15T19:44:54.612Z,58.45
2018-12-15T19:47:22.056Z,58.67
2018-12-15T19:49:49.495Z,58.26
2018-12-15T19:52:16.914Z,58.64
2018-12-15T19:54:44.369Z,58.57
2018-12-15T19:57:11.861Z,58.26
2018-12-15T19:59:39.329Z,57.77
2018-12-15T20:02:06.773Z,58.66
2018-12-15T20:04:34.181Z,58.93
2018-12-15T20:07:01.611Z,58.86
2018-12-15T20:09:29.106Z,58.50
2018-12-15T20:11:56.584Z,59.22
2018-12-15T20:14:24.050Z,58.51
2018-12-15T20:16:51.450Z,58.38
2018-12-15T20:19:18.910Z,58.20
2018-12-15T20:21:46.360Z,58.08
2018-12-15T20:24:13.832Z,58.04
2018-12-15T20:26:41.262Z,58.29
2018-12-15T20:29:08.658Z,58.35
2018-12-15T20:31:36.079Z,58.21
2018-12-15T20:34:03.542Z,58.26
2018-12-15T20:36:30.977Z,58.04
2018-12-15T20:38:58.389Z,57.91
2018-12-15T20:41:25.854Z,58.09
2018-12-15T20:43:53.349Z,58.28
2018-12-15T20:46:20.805Z,57.51
2018-12-15T20:48:48.186Z,58.42
2018-12-15T20:51:15.617Z,58.18
2018-12-15T20:53:43.006Z,57.21
2018-12-15T20:56:10.489Z,57.51
2018-12-15T20:58:37.894Z,58.22
2018-12-15T21:01:06.070Z,57.86
2018-12-15T21:03:33.464Z,57.29
2018-12-15T21:06:00.980Z,57.45
2018-12-15T21:08:28.369Z,57.66
2018-12-15T21:10:55.805Z,58.11
2018-12-15T21:13:23.364Z,57.11
2018-12-15T21:15:52.699Z,57.42
2018-12-15T21:18:20.127Z,57.64
2018-12-15T21:20:47.605Z,57.75
2018-12-15T21:23:15.077Z,57.79
2018-12-15T21:25:42.508Z,57.81
2018-12-15T21:28:09.906Z,57.91
2018-12-15T21:30:37.301Z,58.07
2018-12-15T21:33:04.701Z,58.06
2018-12-15T21:35:32.178Z,57.16
2018-12-15T21:37:59.590Z,57.87
2018-12-15T21:40:27.036Z,57.13
2018-12-15T21:42:54.511Z,57.32
2018-12-15T21:45:22.012Z,56.98
2018-12-15T21:47:57.369Z,57.37
2018-12-15T21:50:20.411Z,57.41
2018-12-15T21:52:47.868Z,56.96
2018-12-15T21:55:15.273Z,57.34
2018-12-15T21:57:42.720Z,57.08
2018-12-15T22:00:10.281Z,55.74
2018-12-15T22:02:37.652Z,56.77
2018-12-15T22:05:05.493Z,56.40
2018-12-15T22:07:32.905Z,55.99
2018-12-15T22:10:00.309Z,55.98
2018-12-15T22:12:27.757Z,56.54
2018-12-15T22:14:55.138Z,56.57
2018-12-15T22:17:22.535Z,56.21
2018-12-15T22:19:49.951Z,56.90
2018-12-15T22:22:17.354Z,56.18
2018-12-15T22:24:44.837Z,55.60
2018-12-15T22:27:12.246Z,55.93
2018-12-15T22:29:39.689Z,56.06
2018-12-15T22:32:07.106Z,55.02
2018-12-15T22:34:34.592Z,55.96
2018-12-15T22:37:02.032Z,56.09
2018-12-15T22:39:29.438Z,56.00
2018-12-15T22:41:56.882Z,55.22
2018-12-15T22:44:24.366Z,55.40
2018-12-15T22:46:51.781Z,55.84
2018-12-15T22:49:19.329Z,55.77
2018-12-15T22:51:46.717Z,55.72
2018-12-15T22:54:14.123Z,55.63
2018-12-15T22:56:41.515Z,55.12
2018-12-15T22:59:08.995Z,55.19
2018-12-15T23:04:15.691Z,54.70
2018-12-15T23:06:43.192Z,55.13
2018-12-15T23:09:10.598Z,55.84
2018-12-15T23:11:38.034Z,55.17
2018-12-15T23:14:05.473Z,55.03
2018-12-15T23:16:32.865Z,55.02
2018-12-15T23:19:00.263Z,55.41
2018-12-15T23:21:27.701Z,55.39
2018-12-15T23:23:55.188Z,55.37
2018-12-15T23:26:22.657Z,55.60
2018-12-15T23:28:50.095Z,55.56
2018-12-15T23:31:17.476Z,55.33
2018-12-15T23:33:44.865Z,55.36
2018-12-15T23:36:12.276Z,55.33
2018-12-15T23:38:39.672Z,54.79
2018-12-15T23:41:07.250Z,55.20
2018-12-15T23:43:34.625Z,55.00
2018-12-15T23:46:02.042Z,55.22
2018-12-15T23:48:29.509Z,55.02
2018-12-15T23:50:56.894Z,55.30
2018-12-15T23:53:24.316Z,54.89
2018-12-15T23:55:51.703Z,54.91
2018-12-15T23:58:19.101Z,54.83
